Time;durP1;ratioP1;P1;durP2;ratioP2;P2;SDS_P1;SDS_P2;PMS_P1;PMS_P2;Temp;Humidity;BMP_temperature;BMP_pressure;BME280_temperature;BME280_humidity;BME280_pressure;Samples;Min_cycle;Max_cycle;Signal;HPM_P1;HPM_P2
2022/12/01 00:01:07;;;;;;;1.42;0.75;;;;;;;3.67;83.17;94082.06;4966327;28;20066;-76
2022/12/01 00:03:33;;;;;;;4.30;1.10;;;;;;;3.61;83.42;94077.84;4966461;28;20067;-76
2022/12/01 00:06:05;;;;;;;2.13;1.08;;;;;;;3.58;83.77;94079.16;4966287;28;20218;-76
2022/12/01 00:08:32;;;;;;;4.13;0.80;;;;;;;3.54;84.25;94078.13;4966218;28;20042;-76
2022/12/01 00:11:09;;;;;;;2.55;1.08;;;;;;;3.60;84.35;94079.69;4966056;28;20035;-76
2022/12/01 00:13:35;;;;;;;3.58;1.00;;;;;;;3.58;84.12;94073.09;4966079;28;20225;-76
2022/12/01 00:16:15;;;;;;;5.63;0.70;;;;;;;3.55;84.15;94078.91;4965842;28;20039;-75
2022/12/01 00:18:41;;;;;;;1.95;0.73;;;;;;;3.56;84.31;94073.38;4965999;28;20035;-75
2022/12/01 00:21:14;;;;;;;0.85;0.63;;;;;;;3.58;84.57;94067.81;4966061;28;20313;-76
2022/12/01 00:23:47;;;;;;;2.17;0.63;;;;;;;3.62;84.30;94071.50;4965922;28;20031;-75
2022/12/01 00:26:14;;;;;;;2.35;0.80;;;;;;;3.65;84.13;94071.00;4965942;28;20089;-75
2022/12/01 00:28:39;;;;;;;1.95;0.70;;;;;;;3.69;83.90;94079.94;4965781;28;20035;-75
2022/12/01 00:31:11;;;;;;;1.25;0.73;;;;;;;3.73;83.56;94080.22;4965929;28;20034;-75
2022/12/01 00:33:38;;;;;;;2.55;0.80;;;;;;;3.74;83.40;94077.28;4965700;28;20023;-75
2022/12/01 00:36:04;;;;;;;4.13;0.88;;;;;;;3.81;83.26;94082.31;4965721;28;20035;-75
2022/12/01 00:38:30;;;;;;;1.50;0.80;;;;;;;3.80;82.89;94080.72;4965687;28;20025;-76
2022/12/01 00:40:56;;;;;;;1.73;0.73;;;;;;;3.81;82.71;94080.47;4965608;28;20191;-76
2022/12/01 00:43:23;;;;;;;2.15;0.75;;;;;;;3.83;82.90;94077.56;4965406;28;20083;-76
2022/12/01 00:45:48;;;;;;;2.20;1.08;;;;;;;3.79;82.80;94074.66;4965770;28;20071;-76
2022/12/01 00:48:14;;;;;;;1.23;0.68;;;;;;;3.76;82.29;94072.56;4965514;28;20027;-76
2022/12/01 00:50:39;;;;;;;2.90;0.63;;;;;;;3.76;82.58;94083.09;4965473;28;20091;-77
2022/12/01 00:53:05;;;;;;;0.77;0.60;;;;;;;3.76;82.48;94069.13;4965228;28;20023;-77
2022/12/01 00:55:30;;;;;;;1.33;0.60;;;;;;;3.80;82.38;94073.59;4965444;28;20030;-77
2022/12/01 00:57:56;;;;;;;1.38;0.80;;;;;;;3.82;82.30;94068.06;4965453;28;20024;-77
2022/12/01 01:00:21;;;;;;;0.90;0.60;;;;;;;3.81;82.54;94067.28;4965349;28;20050;-78
2022/12/01 01:02:46;;;;;;;1.20;0.60;;;;;;;3.88;82.23;94071.50;4965315;28;20120;-78
2022/12/01 01:05:12;;;;;;;2.15;0.80;;;;;;;3.84;82.49;94059.91;4965105;28;20034;-77
2022/12/01 01:07:37;;;;;;;2.97;0.85;;;;;;;3.84;82.78;94070.44;4965151;28;20195;-78
2022/12/01 01:10:03;;;;;;;1.67;0.82;;;;;;;3.83;83.01;94072.31;4965154;28;20257;-78
2022/12/01 01:12:29;;;;;;;2.90;0.90;;;;;;;3.88;82.79;94072.28;4964966;28;20023;-77
2022/12/01 01:14:54;;;;;;;1.40;0.60;;;;;;;3.87;82.96;94060.16;4964959;28;20081;-77
2022/12/01 01:17:20;;;;;;;1.42;0.88;;;;;;;3.84;82.97;94063.31;4964974;28;20047;-78
2022/12/01 01:19:45;;;;;;;14.27;5.30;;;;;;;3.81;82.85;94064.66;4965196;28;20027;-78
2022/12/01 01:22:11;;;;;;;3.20;1.88;;;;;;;3.87;83.13;94059.34;4995993;28;20085;-78
2022/12/01 01:24:36;;;;;;;2.60;0.60;;;;;;;3.89;83.12;94067.78;4963517;28;20027;-78
2022/12/01 01:27:02;;;;;;;1.58;0.90;;;;;;;3.94;82.70;94070.44;4964990;28;20066;-78
2022/12/01 01:29:28;;;;;;;2.80;1.40;;;;;;;3.96;82.85;94065.69;4964974;28;20373;-78
2022/12/01 01:31:53;;;;;;;1.52;0.73;;;;;;;3.98;82.71;94059.09;4964913;28;20030;-75
2022/12/01 01:34:18;;;;;;;1.88;0.65;;;;;;;4.00;82.55;94051.69;4964866;28;20123;-75
2022/12/01 01:36:44;;;;;;;0.80;0.45;;;;;;;4.05;82.17;94060.66;4964759;28;20031;-79
2022/12/01 01:39:09;;;;;;;0.93;0.47;;;;;;;4.04;82.15;94056.44;4964515;28;20388;-78
2022/12/01 01:41:35;;;;;;;0.52;0.50;;;;;;;4.07;82.05;94054.06;4964575;28;20077;-78
2022/12/01 01:44:04;;;;;;;1.33;0.70;;;;;;;4.07;81.93;94040.88;4995726;28;20027;-78
2022/12/01 01:46:32;;;;;;;2.92;0.90;;;;;;;4.11;81.82;94044.56;4964813;28;20023;-78
2022/12/01 01:49:02;;;;;;;1.77;0.80;;;;;;;4.07;82.05;94035.63;4964710;28;20137;-79
2022/12/01 01:51:50;;;;;;;1.05;0.50;;;;;;;4.07;82.10;94040.88;4964552;28;20111;-78
2022/12/01 01:54:23;;;;;;;1.55;0.70;;;;;;;4.11;82.13;94043.75;4964257;29;20035;-78
2022/12/01 01:56:51;;;;;;;1.25;0.60;;;;;;;4.13;82.21;94042.47;4965087;28;20074;-79
2022/12/01 01:59:25;;;;;;;1.30;0.65;;;;;;;4.08;81.89;94029.25;4964650;28;20225;-79
2022/12/01 02:02:08;;;;;;;1.55;0.70;;;;;;;4.09;82.00;94027.41;4964504;28;20031;-77
2022/12/01 02:04:39;;;;;;;0.70;0.52;;;;;;;4.10;82.16;94026.38;4964505;28;20053;-77
2022/12/01 02:07:10;;;;;;;0.60;0.43;;;;;;;4.11;81.86;94026.09;4964576;28;20090;-77
2022/12/01 02:09:35;;;;;;;2.17;0.60;;;;;;;4.09;81.61;94028.22;4964601;28;20031;-77
2022/12/01 02:12:15;;;;;;;1.10;0.70;;;;;;;4.09;81.72;94015.03;4964407;28;20074;-78
2022/12/01 02:15:08;;;;;;;1.30;0.50;;;;;;;4.13;81.65;94016.06;4964478;28;20046;-78
2022/12/01 02:17:57;;;;;;;1.02;0.73;;;;;;;4.06;81.45;94018.19;4964278;28;20262;-78
2022/12/01 02:20:35;;;;;;;1.77;0.80;;;;;;;4.01;82.13;94018.22;4964417;28;20225;-78
2022/12/01 02:23:35;;;;;;;0.38;0.32;;;;;;;4.02;82.02;94020.56;4964369;28;20209;-78
2022/12/01 02:26:16;;;;;;;0.93;0.55;;;;;;;4.03;82.29;94026.66;4964327;28;20102;-78
2022/12/01 02:28:51;;;;;;;0.98;0.65;;;;;;;4.02;82.13;94017.94;4964100;28;20114;-78
2022/12/01 02:31:32;;;;;;;0.85;0.50;;;;;;;4.05;81.89;94014.00;4964548;28;20194;-78
2022/12/01 02:34:05;;;;;;;0.90;0.75;;;;;;;4.06;81.82;94015.56;4964159;28;20034;-78
2022/12/01 02:36:41;;;;;;;1.17;0.70;;;;;;;4.07;81.87;94019.78;4963208;28;20027;-78
2022/12/01 02:39:10;;;;;;;1.20;0.65;;;;;;;4.10;81.71;94023.72;4964122;28;20031;-78
2022/12/01 02:41:42;;;;;;;1.55;0.63;;;;;;;4.10;81.46;94013.97;4964034;28;20074;-78
2022/12/01 02:44:20;;;;;;;1.23;0.60;;;;;;;4.12;81.36;94021.63;4964082;28;20278;-78
2022/12/01 02:47:13;;;;;;;0.82;0.70;;;;;;;4.11;81.13;94020.84;4964252;28;20282;-77
2022/12/01 02:49:50;;;;;;;0.52;0.43;;;;;;;4.07;81.26;94014.50;4959804;28;20090;-78
2022/12/01 02:52:17;;;;;;;1.10;0.60;;;;;;;4.08;81.42;94025.84;4966884;28;20042;-78
2022/12/01 02:54:45;;;;;;;0.70;0.40;;;;;;;4.05;81.34;94024.53;4967688;28;20019;-78
2022/12/01 02:57:12;;;;;;;2.13;0.80;;;;;;;4.03;81.54;94016.09;4967635;28;20015;-77
2022/12/01 02:59:41;;;;;;;1.80;0.85;;;;;;;4.03;81.68;94021.38;4967660;28;20257;-78
2022/12/01 03:02:12;;;;;;;1.02;0.60;;;;;;;4.01;81.76;94019.00;4967372;28;20203;-81
2022/12/01 03:04:51;;;;;;;1.23;0.45;;;;;;;4.00;81.77;94022.69;4967566;28;20031;-80
2022/12/01 03:07:48;;;;;;;0.88;0.50;;;;;;;3.97;82.04;94020.59;4967641;28;20027;-81
2022/12/01 03:10:42;;;;;;;0.95;0.60;;;;;;;4.00;82.00;94021.91;4967375;28;20055;-74
2022/12/01 03:13:25;;;;;;;0.85;0.50;;;;;;;3.93;82.14;94021.38;4967512;28;20097;-76
2022/12/01 03:16:02;;;;;;;1.73;0.63;;;;;;;3.92;82.56;94020.59;4967087;28;20106;-74
2022/12/01 03:18:40;;;;;;;2.78;1.17;;;;;;;3.93;82.67;94022.19;4967351;28;20042;-74
2022/12/01 03:21:57;;;;;;;2.13;1.05;;;;;;;3.92;82.83;94019.81;4967041;28;20306;-73
2022/12/01 03:24:28;;;;;;;0.88;0.60;;;;;;;3.94;82.72;94013.19;4927165;29;20100;-75
2022/12/01 03:26:56;;;;;;;3.65;2.10;;;;;;;3.93;82.79;94010.81;4927107;29;20031;-75
2022/12/01 03:29:31;;;;;;;0.85;0.50;;;;;;;3.95;82.53;94014.78;4951239;28;20031;-75
2022/12/01 03:32:02;;;;;;;3.83;0.70;;;;;;;3.98;82.61;94010.81;4966736;28;20027;-74
2022/12/01 03:34:27;;;;;;;2.22;0.60;;;;;;;3.97;82.47;94002.13;4965450;28;20238;-77
2022/12/01 03:36:57;;;;;;;1.17;0.70;;;;;;;4.01;82.11;94018.22;4965542;28;20085;-77
2022/12/01 03:39:32;;;;;;;2.35;0.60;;;;;;;3.96;82.28;94016.38;4966775;28;20023;-77
2022/12/01 03:42:12;;;;;;;0.68;0.52;;;;;;;4.00;82.31;94011.34;4966855;28;20030;-77
2022/12/01 03:44:46;;;;;;;1.50;0.80;;;;;;;4.01;82.14;94019.00;4966848;28;20027;-76
2022/12/01 03:47:17;;;;;;;3.38;0.50;;;;;;;4.01;81.91;94010.31;4965536;28;20023;-76
2022/12/01 03:49:43;;;;;;;1.65;0.75;;;;;;;4.03;81.84;94021.38;4966604;28;20263;-77
2022/12/01 03:52:14;;;;;;;1.38;0.68;;;;;;;4.02;81.61;94010.03;4964804;28;20313;-76
2022/12/01 03:54:54;;;;;;;1.00;0.50;;;;;;;4.01;81.63;94005.81;4965005;28;20042;-80
2022/12/01 03:57:27;;;;;;;1.30;0.70;;;;;;;4.01;81.91;94007.66;4964875;28;20027;-78
2022/12/01 03:59:53;;;;;;;2.65;0.75;;;;;;;4.03;81.49;94005.56;4964709;28;20038;-77
2022/12/01 04:02:19;;;;;;;1.88;0.70;;;;;;;4.04;81.48;94004.47;4964512;28;20019;-78
2022/12/01 04:04:44;;;;;;;2.28;1.05;;;;;;;4.02;81.25;94003.97;4964363;28;20035;-78
2022/12/01 04:07:12;;;;;;;2.30;0.90;;;;;;;3.95;81.60;94014.00;4966130;28;20044;-77
2022/12/01 04:09:40;;;;;;;1.95;0.88;;;;;;;3.89;81.58;94010.59;4966461;28;20027;-74
2022/12/01 04:14:50;;;;;;;1.52;0.82;;;;;;;3.82;82.13;94002.16;4966149;28;20022;-73
2022/12/01 04:17:15;;;;;;;1.30;0.60;;;;;;;3.87;82.39;94006.63;4966129;28;20265;-73
2022/12/01 04:19:41;;;;;;;1.38;0.70;;;;;;;3.80;82.41;94012.19;4966136;28;20030;-73
2022/12/01 04:22:06;;;;;;;4.70;0.90;;;;;;;3.75;82.66;94012.19;4966010;28;20356;-73
2022/12/01 04:24:32;;;;;;;1.35;0.55;;;;;;;3.77;82.78;94015.34;4965899;28;20277;-74
2022/12/01 04:26:57;;;;;;;0.77;0.50;;;;;;;3.75;83.06;94015.63;4965974;28;20082;-74
2022/12/01 04:29:22;;;;;;;2.83;1.00;;;;;;;3.79;83.06;94018.53;4965828;28;20247;-74
2022/12/01 04:31:48;;;;;;;1.75;0.73;;;;;;;3.76;82.78;94017.19;4966059;28;20321;-74
2022/12/01 04:34:13;;;;;;;1.60;0.80;;;;;;;3.76;82.92;94014.56;4965941;28;20046;-74
2022/12/01 04:36:39;;;;;;;1.77;0.93;;;;;;;3.75;82.94;94022.75;4965911;28;20343;-75
2022/12/01 04:39:04;;;;;;;1.52;0.90;;;;;;;3.72;83.30;94028.53;4965616;28;20090;-75
2022/12/01 04:41:30;;;;;;;5.47;1.52;;;;;;;3.71;83.11;94019.06;4965796;28;20035;-75
2022/12/01 04:43:55;;;;;;;2.17;1.08;;;;;;;3.68;83.15;94036.19;4965503;28;20042;-75
2022/12/01 04:46:22;;;;;;;1.88;0.90;;;;;;;3.69;83.71;94031.72;4965458;28;20031;-77
2022/12/01 04:48:47;;;;;;;1.70;0.90;;;;;;;3.69;83.25;94032.50;4965810;28;20033;-77
2022/12/01 04:51:12;;;;;;;1.60;0.80;;;;;;;3.74;83.65;94036.97;4965649;28;20023;-77
2022/12/01 04:53:38;;;;;;;1.83;1.00;;;;;;;3.71;83.70;94033.03;4965400;28;20202;-77
2022/12/01 04:56:04;;;;;;;1.35;0.80;;;;;;;3.72;83.53;94037.22;4965326;28;20039;-77
2022/12/01 04:58:31;;;;;;;2.30;0.98;;;;;;;3.68;83.29;94040.66;4965458;28;20030;-77
2022/12/01 05:01:01;;;;;;;2.28;1.10;;;;;;;3.62;83.65;94037.22;4965264;28;20023;-77
2022/12/01 05:03:27;;;;;;;1.48;0.90;;;;;;;3.60;83.57;94026.97;4965088;28;20034;-76
2022/12/01 05:06:04;;;;;;;3.75;1.33;;;;;;;3.65;84.00;94041.22;4965339;28;20035;-77
2022/12/01 05:08:29;;;;;;;5.15;1.65;;;;;;;3.64;83.78;94029.06;4965227;28;20030;-74
2022/12/01 05:10:55;;;;;;;2.45;1.05;;;;;;;3.65;83.76;94043.84;4965097;28;20023;-74
2022/12/01 05:13:21;;;;;;;2.15;1.20;;;;;;;3.61;83.84;94047.00;4965059;28;20119;-74
2022/12/01 05:15:46;;;;;;;1.63;0.93;;;;;;;3.61;83.90;94041.72;4964282;28;20051;-74
2022/12/01 05:18:12;;;;;;;1.33;0.88;;;;;;;3.66;84.14;94037.50;4965007;28;20026;-74
2022/12/01 05:23:22;;;;;;;1.52;0.98;;;;;;;3.71;84.27;94048.84;4965159;28;20081;-74
2022/12/01 05:25:47;;;;;;;1.75;1.10;;;;;;;3.77;83.81;94039.88;4965038;28;20027;-74
2022/12/01 05:28:13;;;;;;;2.03;1.15;;;;;;;3.81;83.63;94046.19;4964861;28;20047;-74
2022/12/01 05:30:39;;;;;;;7.97;1.15;;;;;;;3.85;83.64;94048.28;4965049;28;20106;-74
2022/12/01 05:33:05;;;;;;;2.88;1.55;;;;;;;3.86;83.33;94052.50;4965033;28;20077;-74
2022/12/01 05:35:32;;;;;;;1.27;0.88;;;;;;;3.82;83.06;94045.13;4964732;28;20330;-74
2022/12/01 05:37:57;;;;;;;5.65;3.35;;;;;;;3.82;83.18;94046.97;4964730;28;20031;-74
2022/12/01 05:40:23;;;;;;;2.40;1.17;;;;;;;3.80;83.15;94046.44;4964902;28;20086;-74
2022/12/01 05:42:48;;;;;;;2.47;1.33;;;;;;;3.84;83.15;94052.00;4964816;28;20359;-74
2022/12/01 05:45:13;;;;;;;2.78;1.25;;;;;;;3.86;83.49;94053.31;4964703;28;20028;-74
2022/12/01 05:47:39;;;;;;;3.53;1.70;;;;;;;3.89;82.97;94047.50;4964672;28;20043;-74
2022/12/01 05:50:05;;;;;;;3.70;1.38;;;;;;;3.91;82.76;94057.78;4964709;28;20034;-74
2022/12/01 05:52:33;;;;;;;3.25;1.75;;;;;;;3.91;82.54;94047.22;4964789;28;20053;-74
2022/12/01 05:54:59;;;;;;;2.90;1.30;;;;;;;3.82;81.81;94057.53;4964610;28;20043;-76
2022/12/01 05:57:25;;;;;;;5.72;1.67;;;;;;;3.82;82.00;94050.41;4964558;28;20038;-77
2022/12/01 05:59:50;;;;;;;10.48;3.67;;;;;;;3.79;81.87;94064.13;4995812;28;20027;-79
2022/12/01 06:02:15;;;;;;;3.92;2.20;;;;;;;3.81;81.93;94050.69;4964774;28;20031;-79
2022/12/01 06:04:41;;;;;;;2.45;1.50;;;;;;;3.82;81.60;94057.53;4964508;28;20258;-78
2022/12/01 06:07:07;;;;;;;3.47;1.70;;;;;;;3.85;81.74;94056.19;4964652;28;20054;-79
2022/12/01 06:09:32;;;;;;;2.67;1.75;;;;;;;3.90;81.45;94056.19;4964594;28;20035;-78
2022/12/01 06:11:58;;;;;;;3.78;2.08;;;;;;;3.93;81.27;94050.38;4964438;28;20087;-77
2022/12/01 06:14:23;;;;;;;3.00;1.52;;;;;;;3.94;81.28;94052.75;4964324;28;20059;-77
2022/12/01 06:16:49;;;;;;;3.67;1.40;;;;;;;3.92;80.89;94054.09;4964695;28;20147;-77
2022/12/01 06:19:14;;;;;;;2.97;1.40;;;;;;;3.89;80.40;94059.88;4964626;28;20038;-75
2022/12/01 06:21:39;;;;;;;3.17;1.35;;;;;;;3.89;79.95;94051.97;4964612;28;20090;-75
2022/12/01 06:24:05;;;;;;;2.95;1.02;;;;;;;3.85;80.05;94053.56;4964235;28;20115;-74
2022/12/01 06:26:31;;;;;;;4.30;1.08;;;;;;;3.84;80.35;94049.34;4966075;28;20046;-74
2022/12/01 06:28:56;;;;;;;3.70;1.52;;;;;;;3.84;80.57;94036.16;4968342;28;20030;-74
2022/12/01 06:31:21;;;;;;;3.08;1.88;;;;;;;3.88;80.52;94055.69;4968300;28;20031;-74
2022/12/01 06:33:47;;;;;;;3.00;1.33;;;;;;;3.91;80.81;94040.13;4968119;28;20045;-74
2022/12/01 06:36:12;;;;;;;3.78;2.03;;;;;;;3.94;80.98;94046.69;4968083;28;20019;-74
2022/12/01 06:38:38;;;;;;;4.20;2.13;;;;;;;3.98;80.66;94045.13;4968163;28;20022;-77
2022/12/01 06:41:04;;;;;;;2.40;1.30;;;;;;;4.00;80.53;94046.41;4968015;28;20317;-77
2022/12/01 06:43:30;;;;;;;2.58;1.48;;;;;;;3.96;80.45;94031.41;4967738;28;20027;-77
2022/12/01 06:45:55;;;;;;;2.85;1.40;;;;;;;3.96;80.22;94045.38;4968056;28;20030;-77
2022/12/01 06:48:21;;;;;;;3.72;1.90;;;;;;;3.97;80.38;94043.53;4968006;28;20217;-76
2022/12/01 06:50:46;;;;;;;3.88;1.92;;;;;;;3.93;80.16;94043.28;4967783;28;20249;-76
2022/12/01 06:53:12;;;;;;;5.45;2.50;;;;;;;3.91;80.16;94039.31;4967756;28;20034;-76
2022/12/01 06:55:38;;;;;;;6.82;2.17;;;;;;;3.89;79.85;94039.59;4967806;28;20050;-75
2022/12/01 06:58:04;;;;;;;6.00;2.20;;;;;;;3.91;79.79;94045.41;4967667;28;20269;-75
2022/12/01 07:00:29;;;;;;;7.72;3.92;;;;;;;3.87;80.21;94046.16;4967582;28;20050;-75
2022/12/01 07:02:55;;;;;;;2.67;1.25;;;;;;;3.85;80.26;94050.91;4967739;28;20030;-76
2022/12/01 07:05:20;;;;;;;3.63;2.20;;;;;;;3.74;79.99;94045.66;4967458;28;20031;-74
2022/12/01 07:07:45;;;;;;;3.30;1.73;;;;;;;3.75;80.40;94052.53;4967542;28;20042;-74
2022/12/01 07:10:11;;;;;;;4.70;1.83;;;;;;;3.72;80.26;94047.78;4967334;28;20058;-74
2022/12/01 07:12:37;;;;;;;2.35;1.52;;;;;;;3.71;80.49;94054.13;4967424;28;20205;-74
2022/12/01 07:15:05;;;;;;;2.97;1.88;;;;;;;3.75;80.50;94044.63;4967362;28;20025;-76
2022/12/01 07:17:30;;;;;;;3.63;1.67;;;;;;;3.74;80.50;94058.84;4967301;28;20043;-76
2022/12/01 07:19:56;;;;;;;3.28;1.90;;;;;;;3.75;80.52;94059.66;4967271;28;20042;-76
2022/12/01 07:22:21;;;;;;;3.50;1.50;;;;;;;3.77;80.27;94055.69;4967160;28;20066;-77
2022/12/01 07:24:47;;;;;;;8.80;1.63;;;;;;;3.80;79.89;94055.16;4967201;28;20099;-77
2022/12/01 07:27:12;;;;;;;2.88;1.48;;;;;;;3.80;79.53;94057.78;4967256;28;20102;-76
2022/12/01 07:29:37;;;;;;;3.38;1.40;;;;;;;3.73;79.15;94054.63;4967139;28;20098;-76
2022/12/01 07:32:03;;;;;;;3.55;1.83;;;;;;;3.75;79.43;94051.75;4967025;28;20049;-76
2022/12/01 07:34:28;;;;;;;4.13;1.70;;;;;;;3.75;79.41;94049.88;4967147;28;20288;-77
2022/12/01 07:36:54;;;;;;;3.92;1.90;;;;;;;3.76;79.66;94059.38;4967025;28;20030;-70
2022/12/01 07:39:19;;;;;;;6.72;2.05;;;;;;;3.80;80.50;94055.16;4965880;28;20326;-72
2022/12/01 07:41:45;;;;;;;6.00;1.55;;;;;;;3.85;80.62;94049.09;4966896;28;20023;-71
2022/12/01 07:44:10;;;;;;;3.42;1.70;;;;;;;3.94;80.69;94054.63;4966800;28;20035;-71
2022/12/01 07:46:36;;;;;;;2.55;1.23;;;;;;;3.99;80.42;94050.13;4966566;28;20038;-72
2022/12/01 07:49:06;;;;;;;3.58;1.52;;;;;;;4.03;80.02;94058.31;4966772;28;20321;-72
2022/12/01 07:51:32;;;;;;;6.32;2.35;;;;;;;4.10;80.07;94045.63;4966766;28;20114;-72
2022/12/01 07:54:02;;;;;;;2.72;1.40;;;;;;;4.11;80.35;94049.84;4966410;28;20085;-72
2022/12/01 07:56:28;;;;;;;6.05;1.42;;;;;;;4.12;80.12;94054.06;4966660;28;20030;-72
2022/12/01 07:58:53;;;;;;;4.35;2.80;;;;;;;4.18;79.20;94058.25;4966687;28;20050;-73
2022/12/01 08:01:23;;;;;;;4.40;1.80;;;;;;;4.13;78.29;94057.47;4966843;28;20086;-76
2022/12/01 08:03:54;;;;;;;8.10;2.22;;;;;;;4.09;77.98;94059.88;4966498;28;20178;-75
2022/12/01 08:06:20;;;;;;;4.72;1.98;;;;;;;4.05;77.96;94056.19;4966427;28;20023;-75
2022/12/01 08:08:46;;;;;;;4.45;1.95;;;;;;;3.98;78.36;94058.31;4966589;28;20035;-76
2022/12/01 08:11:31;;;;;;;5.45;2.00;;;;;;;3.96;78.46;94057.78;4966506;28;20026;-75
2022/12/01 08:13:56;;;;;;;7.63;1.77;;;;;;;3.95;78.17;94064.13;4966306;28;20019;-75
2022/12/01 08:16:23;;;;;;;5.93;1.52;;;;;;;3.93;78.48;94055.66;4966256;28;20043;-75
2022/12/01 08:18:49;;;;;;;6.03;2.22;;;;;;;3.91;78.52;94050.66;4997660;28;20050;-75
2022/12/01 08:21:17;;;;;;;3.85;2.30;;;;;;;3.88;78.67;94061.75;4965295;28;20298;-75
2022/12/01 08:23:43;;;;;;;5.18;2.03;;;;;;;3.91;78.94;94052.50;4966226;28;20131;-75
2022/12/01 08:26:13;;;;;;;10.38;1.98;;;;;;;3.87;79.28;94054.91;4966046;28;20325;-75
2022/12/01 08:28:38;;;;;;;9.55;2.53;;;;;;;3.87;79.10;94059.34;4966195;28;20031;-75
2022/12/01 08:31:15;;;;;;;2.30;1.17;;;;;;;3.82;78.97;94058.31;4966092;28;20321;-75
2022/12/01 08:33:40;;;;;;;4.00;2.20;;;;;;;3.86;78.88;94057.78;4965680;28;20031;-75
2022/12/01 08:36:06;;;;;;;6.47;2.00;;;;;;;3.87;79.36;94054.09;4966145;28;20046;-75
2022/12/01 08:38:32;;;;;;;3.40;1.60;;;;;;;3.86;79.37;94052.50;4966103;28;20027;-75
2022/12/01 08:41:01;;;;;;;3.53;2.10;;;;;;;3.92;79.52;94048.81;4965810;28;20265;-75
2022/12/01 08:43:27;;;;;;;4.00;1.45;;;;;;;3.98;79.10;94048.53;4965710;28;20031;-75
2022/12/01 08:45:52;;;;;;;13.15;2.38;;;;;;;4.01;79.13;94048.00;4965593;28;20031;-75
2022/12/01 08:48:18;;;;;;;4.78;1.95;;;;;;;4.04;78.74;94038.00;4965637;28;20031;-76
2022/12/01 08:50:43;;;;;;;12.63;2.92;;;;;;;4.03;78.77;94037.19;4965582;28;20081;-76
2022/12/01 08:53:08;;;;;;;5.30;1.48;;;;;;;4.08;79.21;94039.03;4965719;28;20035;-76
2022/12/01 08:55:34;;;;;;;5.93;1.48;;;;;;;4.10;79.03;94036.91;4965756;28;20078;-76
2022/12/01 08:57:59;;;;;;;3.55;1.58;;;;;;;4.07;78.77;94038.25;4965666;28;20078;-76
2022/12/01 09:00:25;;;;;;;2.72;1.63;;;;;;;4.07;79.11;94037.44;4965434;28;20318;-76
2022/12/01 09:02:50;;;;;;;2.40;1.30;;;;;;;4.08;78.93;94036.41;4965567;28;20093;-76
2022/12/01 09:05:15;;;;;;;2.80;1.50;;;;;;;4.14;78.57;94038.75;4965565;28;20031;-76
2022/12/01 09:07:41;;;;;;;2.75;1.50;;;;;;;4.11;78.22;94033.22;4965390;28;20035;-76
2022/12/01 09:10:08;;;;;;;3.70;1.63;;;;;;;4.05;78.32;94029.81;4965366;28;20035;-76
2022/12/01 09:12:33;;;;;;;2.63;1.15;;;;;;;4.09;78.83;94036.13;4965321;28;20082;-76
2022/12/01 09:14:59;;;;;;;2.63;1.33;;;;;;;4.17;78.65;94042.69;4965261;28;20023;-76
2022/12/01 09:17:24;;;;;;;3.17;1.65;;;;;;;4.24;78.33;94032.66;4965081;28;20124;-76
2022/12/01 09:19:49;;;;;;;4.97;2.15;;;;;;;4.32;78.03;94039.22;4965369;28;20031;-76
2022/12/01 09:22:15;;;;;;;2.33;1.38;;;;;;;4.36;77.84;94042.91;4965352;28;20023;-74
2022/12/01 09:24:40;;;;;;;3.90;1.75;;;;;;;4.36;77.43;94025.22;4964897;28;20305;-76
2022/12/01 09:27:06;;;;;;;4.45;1.38;;;;;;;4.27;77.01;94021.53;4965195;28;20023;-75
2022/12/01 09:29:31;;;;;;;2.55;1.38;;;;;;;4.32;77.42;94028.69;4965077;28;20097;-74
2022/12/01 09:31:58;;;;;;;2.17;1.15;;;;;;;4.36;77.19;94032.38;4965067;28;20101;-74
2022/12/01 09:34:25;;;;;;;3.88;2.22;;;;;;;4.41;77.33;94032.31;4965039;28;20023;-74
2022/12/01 09:36:54;;;;;;;4.00;1.63;;;;;;;4.48;77.48;94032.84;4965255;28;20042;-74
2022/12/01 09:39:20;;;;;;;3.03;1.88;;;;;;;4.48;77.06;94017.00;4965023;28;20046;-72
2022/12/01 09:42:11;;;;;;;3.13;1.35;;;;;;;4.48;76.63;94034.66;4964872;28;20030;-74
2022/12/01 09:44:51;;;;;;;3.70;1.60;;;;;;;4.47;76.80;94031.25;4964761;28;20027;-75
2022/12/01 09:47:36;;;;;;;4.38;1.50;;;;;;;4.47;76.17;94018.06;4965086;28;20042;-73
2022/12/01 09:50:12;;;;;;;2.90;1.38;;;;;;;4.41;76.61;94021.78;4964582;28;20023;-73
2022/12/01 09:53:05;;;;;;;3.55;1.20;;;;;;;4.50;76.67;94014.88;4964561;28;20206;-74
2022/12/01 09:55:32;;;;;;;4.57;1.92;;;;;;;4.48;76.50;94006.44;4964592;28;20285;-74
2022/12/01 09:57:59;;;;;;;2.67;1.40;;;;;;;4.44;76.42;94015.97;4964778;28;20031;-74
2022/12/01 10:00:31;;;;;;;3.03;1.58;;;;;;;4.40;76.77;94017.56;4964395;28;20221;-74
2022/12/01 10:03:16;;;;;;;2.55;1.67;;;;;;;4.40;76.90;94014.94;4964516;28;20038;-73
2022/12/01 10:06:01;;;;;;;4.78;1.50;;;;;;;4.45;77.02;94004.34;4964625;28;20031;-73
2022/12/01 10:08:30;;;;;;;2.85;1.27;;;;;;;4.47;76.45;94010.13;4964783;28;20030;-73
2022/12/01 10:11:05;;;;;;;4.72;1.45;;;;;;;4.43;76.64;94014.38;4964539;28;20027;-73
2022/12/01 10:13:31;;;;;;;5.03;1.92;;;;;;;4.43;76.89;94003.81;4964298;28;20019;-74
2022/12/01 10:16:17;;;;;;;4.93;1.65;;;;;;;4.43;76.57;94009.09;4964547;28;20158;-73
2022/12/01 10:18:51;;;;;;;4.57;1.15;;;;;;;4.39;76.93;94002.78;4964400;28;20174;-74
2022/12/01 10:21:54;;;;;;;11.68;1.85;;;;;;;4.39;76.50;94002.78;4964713;28;20033;-74
2022/12/01 10:24:48;;;;;;;;;;;;;;;4.42;76.33;94010.16;4964975;28;20042;-74
2022/12/01 10:27:41;;;;;;;8.07;2.20;;;;;;;4.37;77.19;93992.47;4964439;28;20284;-73
2022/12/01 10:30:07;;;;;;;5.30;1.85;;;;;;;4.39;77.64;94003.56;4964313;28;20070;-73
2022/12/01 10:33:01;;;;;;;7.28;1.55;;;;;;;4.47;77.46;94004.06;4964005;28;20035;-73
2022/12/01 10:35:34;;;;;;;3.05;1.45;;;;;;;4.44;76.77;94005.41;4964468;28;20070;-73
2022/12/01 10:38:06;;;;;;;4.05;2.00;;;;;;;4.49;76.98;94001.94;4964450;28;20037;-73
2022/12/01 10:40:34;;;;;;;4.67;2.10;;;;;;;4.50;77.25;94003.50;4964269;28;20372;-73
2022/12/01 10:43:01;;;;;;;9.50;2.28;;;;;;;4.59;77.10;94015.88;4964377;28;20031;-73
2022/12/01 10:45:32;;;;;;;11.07;2.70;;;;;;;4.60;76.73;93993.72;4964261;28;20098;-72
2022/12/01 10:48:18;;;;;;;2.97;1.47;;;;;;;4.61;76.11;94000.56;4964413;28;20026;-72
2022/12/01 10:50:52;;;;;;;3.03;1.45;;;;;;;4.62;76.20;94004.00;4964389;28;20051;-72
2022/12/01 10:53:35;;;;;;;2.92;1.40;;;;;;;4.64;75.92;94004.53;4964426;28;20090;-72
2022/12/01 10:56:20;;;;;;;7.28;2.83;;;;;;;4.66;75.45;93997.13;4964249;28;20035;-72
2022/12/01 10:58:51;;;;;;;6.15;2.63;;;;;;;4.61;75.45;94000.56;4964288;28;20202;-72
2022/12/01 11:01:23;;;;;;;5.70;1.88;;;;;;;4.59;75.72;93999.25;4964093;28;20322;-73
2022/12/01 11:04:13;;;;;;;9.10;1.88;;;;;;;4.66;75.87;93996.31;4964347;28;20031;-73
2022/12/01 11:06:38;;;;;;;14.43;2.13;;;;;;;4.71;75.51;93998.94;4955092;28;20035;-72
2022/12/01 11:09:16;;;;;;;17.58;2.47;;;;;;;4.72;75.27;94000.50;4962772;28;20026;-71
2022/12/01 11:11:42;;;;;;;10.10;2.22;;;;;;;4.71;74.80;93997.09;4963883;28;20042;-72
2022/12/01 11:14:21;;;;;;;5.95;1.98;;;;;;;4.69;74.30;93995.78;4965399;28;20023;-72
2022/12/01 11:16:50;;;;;;;10.30;1.92;;;;;;;4.68;74.79;93992.38;4967399;28;20113;-72
2022/12/01 11:19:25;;;;;;;3.63;1.48;;;;;;;4.68;74.38;93988.91;4966655;28;20030;-74
2022/12/01 11:21:53;;;;;;;8.57;2.00;;;;;;;4.59;74.20;93992.13;4966984;28;20318;-73
2022/12/01 11:24:42;;;;;;;9.05;1.92;;;;;;;4.58;74.40;93985.28;4966836;28;20055;-73
2022/12/01 11:27:20;;;;;;;5.00;1.70;;;;;;;4.51;74.71;93989.28;4966916;28;20031;-72
2022/12/01 11:29:48;;;;;;;7.00;2.20;;;;;;;4.50;74.99;93983.22;4966698;28;20070;-72
2022/12/01 11:32:29;;;;;;;7.95;2.67;;;;;;;4.53;75.37;93984.50;4966767;28;20099;-72
2022/12/01 11:35:10;;;;;;;8.85;2.30;;;;;;;4.51;74.58;93989.28;4966714;28;20035;-71
2022/12/01 11:37:48;;;;;;;7.05;2.90;;;;;;;4.50;75.20;93983.22;4967095;28;20213;-68
2022/12/01 11:40:26;;;;;;;11.98;3.25;;;;;;;4.48;75.03;93990.59;4966957;28;20042;-69
2022/12/01 11:43:04;;;;;;;5.63;2.95;;;;;;;4.50;75.12;93985.84;4966903;28;20026;-69
2022/12/01 11:45:38;;;;;;;8.38;2.85;;;;;;;4.44;75.11;93984.28;4966820;28;20297;-69
2022/12/01 11:48:03;;;;;;;7.40;3.30;;;;;;;4.50;75.34;93987.69;4967011;28;20030;-70
2022/12/01 11:50:38;;;;;;;4.57;2.40;;;;;;;4.51;75.23;93989.28;4966763;28;20243;-70
2022/12/01 11:53:27;;;;;;;5.50;2.40;;;;;;;4.48;75.70;93985.34;4966735;28;20228;-70
2022/12/01 11:56:12;;;;;;;6.25;2.30;;;;;;;4.53;75.60;93981.88;4966879;28;20031;-70
2022/12/01 11:58:38;;;;;;;5.07;2.10;;;;;;;4.50;75.43;93992.97;4966770;28;20046;-71
2022/12/01 12:01:15;;;;;;;5.60;2.30;;;;;;;4.46;75.16;93982.19;4966680;28;20042;-70